Time;durP1;ratioP1;P1;durP2;ratioP2;P2;SDS_P1;SDS_P2;PMS_P1;PMS_P2;Temp;Humidity;BMP_temperature;BMP_pressure;BME280_temperature;BME280_humidity;BME280_pressure;Samples;Min_cycle;Max_cycle;Signal;HPM_P1;HPM_P2
2023/09/03 00:01:22;;;;;;;6.05;2.67;;;25.70;51.40;;;;;;7590924;23;20066;-74
2023/09/03 00:04:23;;;;;;;6.80;1.83;;;25.70;51.40;;;;;;7591764;23;20145;-74
2023/09/03 00:07:24;;;;;;;5.32;2.53;;;25.80;51.50;;;;;;7591405;23;20010;-75
2023/09/03 00:10:25;;;;;;;4.47;2.38;;;25.70;52.00;;;;;;7591070;23;20025;-74
2023/09/03 00:13:26;;;;;;;5.43;2.65;;;25.70;51.50;;;;;;7591602;23;20020;-76
2023/09/03 00:16:27;;;;;;;7.38;2.40;;;25.70;51.50;;;;;;7590922;23;20089;-75
2023/09/03 00:19:28;;;;;;;5.40;2.20;;;25.70;51.70;;;;;;7565005;23;20031;-75
2023/09/03 00:22:29;;;;;;;4.88;2.08;;;25.70;52.00;;;;;;7564953;23;20006;-75
2023/09/03 00:25:37;;;;;;;6.25;2.40;;;25.60;52.10;;;;;;7591128;23;20084;-74
2023/09/03 00:28:38;;;;;;;2.03;1.70;;;25.60;52.40;;;;;;7591642;23;20010;-75
2023/09/03 00:31:38;;;;;;;5.10;2.00;;;25.60;52.40;;;;;;7593604;23;20006;-75
2023/09/03 00:34:39;;;;;;;3.75;2.00;;;25.60;52.50;;;;;;7567227;23;20021;-74
2023/09/03 00:37:40;;;;;;;6.00;1.98;;;25.50;52.60;;;;;;7593388;23;20490;-75
2023/09/03 00:40:41;;;;;;;5.78;2.05;;;25.50;52.60;;;;;;7592881;23;20028;-75
2023/09/03 00:43:42;;;;;;;4.65;2.47;;;25.50;52.60;;;;;;7593777;23;20037;-74
2023/09/03 00:46:43;;;;;;;4.07;2.22;;;25.40;52.70;;;;;;7566700;23;20018;-74
2023/09/03 00:49:44;;;;;;;5.03;2.60;;;25.30;52.80;;;;;;7566591;23;20451;-75
2023/09/03 00:52:45;;;;;;;4.53;2.17;;;25.30;52.90;;;;;;7592702;23;20006;-74
2023/09/03 00:55:46;;;;;;;3.72;2.25;;;25.30;53.10;;;;;;7566697;23;20006;-74
2023/09/03 00:58:47;;;;;;;3.55;2.20;;;25.30;53.20;;;;;;7592545;23;20123;-74
2023/09/03 01:01:51;;;;;;;9.10;2.50;;;25.20;53.30;;;;;;7566418;23;20010;-74
2023/09/03 01:04:52;;;;;;;5.53;2.25;;;25.20;53.40;;;;;;7592333;23;20065;-76
2023/09/03 01:07:55;;;;;;;8.00;2.17;;;25.20;53.40;;;;;;7592557;23;20014;-74
2023/09/03 01:11:18;;;;;;;10.38;2.20;;;25.10;53.50;;;;;;7592607;23;20017;-75
2023/09/03 01:14:25;;;;;;;8.40;2.80;;;25.10;53.60;;;;;;7592845;23;20112;-75
2023/09/03 01:17:45;;;;;;;4.57;2.50;;;25.10;53.60;;;;;;7593048;23;20048;-75
2023/09/03 01:20:58;;;;;;;4.90;2.58;;;25.10;53.70;;;;;;7592596;23;20096;-75
2023/09/03 01:24:19;;;;;;;3.55;2.25;;;25.10;53.90;;;;;;7565885;23;20105;-75
2023/09/03 01:27:33;;;;;;;5.63;2.40;;;25.10;54.10;;;;;;7456280;23;20110;-76
2023/09/03 01:30:35;;;;;;;6.30;2.75;;;25.10;54.20;;;;;;7456107;23;20019;-76
2023/09/03 01:33:38;;;;;;;4.35;2.25;;;25.00;54.40;;;;;;7480174;23;20015;-74
2023/09/03 01:36:39;;;;;;;6.60;2.55;;;25.00;54.60;;;;;;7456476;23;20060;-74
2023/09/03 01:39:40;;;;;;;4.78;2.15;;;25.00;54.90;;;;;;7480206;23;20016;-74
2023/09/03 01:42:42;;;;;;;5.35;2.58;;;25.00;55.10;;;;;;7480842;23;20018;-74
2023/09/03 01:45:55;;;;;;;6.97;2.38;;;24.90;55.20;;;;;;7480516;23;20434;-74
2023/09/03 01:49:31;;;;;;;3.80;2.08;;;24.90;55.30;;;;;;7480687;23;20021;-74
2023/09/03 01:52:48;;;;;;;5.90;2.15;;;24.90;55.50;;;;;;7456208;23;20029;-75
2023/09/03 01:55:54;;;;;;;7.90;2.92;;;24.80;55.50;;;;;;7480723;23;20135;-74
2023/09/03 01:59:02;;;;;;;8.57;2.88;;;24.80;55.50;;;;;;7457097;23;20136;-75
2023/09/03 02:02:04;;;;;;;4.43;2.33;;;24.80;55.40;;;;;;7456992;23;20554;-75
2023/09/03 02:05:07;;;;;;;3.63;2.40;;;24.80;55.40;;;;;;7569939;23;20020;-74
2023/09/03 02:08:08;;;;;;;6.57;2.65;;;24.80;55.50;;;;;;7592680;23;20032;-75
2023/09/03 02:11:08;;;;;;;4.93;2.50;;;24.90;55.60;;;;;;7566016;23;20348;-75
2023/09/03 02:14:09;;;;;;;4.40;2.40;;;24.80;55.60;;;;;;7566427;23;20017;-75
2023/09/03 02:17:14;;;;;;;5.70;2.50;;;24.80;55.70;;;;;;7565945;23;20010;-75
2023/09/03 02:20:16;;;;;;;7.90;2.13;;;24.80;55.70;;;;;;7565504;23;20021;-75
2023/09/03 02:23:16;;;;;;;7.03;2.78;;;24.80;55.70;;;;;;7591593;23;20014;-74
2023/09/03 02:26:18;;;;;;;16.30;2.30;;;24.80;55.60;;;;;;7591895;23;20076;-75
2023/09/03 02:29:18;;;;;;;5.72;2.90;;;24.80;55.50;;;;;;7565024;23;20025;-75
2023/09/03 02:32:19;;;;;;;4.10;2.33;;;24.80;55.40;;;;;;7564677;23;20014;-74
2023/09/03 02:35:20;;;;;;;9.10;2.25;;;24.80;55.40;;;;;;7564874;23;20021;-75
2023/09/03 02:38:21;;;;;;;4.18;2.50;;;24.80;55.20;;;;;;7591729;23;20017;-75
2023/09/03 02:41:22;;;;;;;5.43;2.63;;;24.80;55.20;;;;;;7565048;23;20020;-75
2023/09/03 02:44:23;;;;;;;5.85;2.30;;;24.70;55.20;;;;;;7565372;23;20576;-75
2023/09/03 02:47:23;;;;;;;4.40;2.40;;;24.70;55.40;;;;;;7591885;23;20121;-74
2023/09/03 02:50:24;;;;;;;6.10;3.05;;;24.70;55.80;;;;;;7565206;23;20044;-75
2023/09/03 02:53:25;;;;;;;7.32;2.40;;;24.60;56.10;;;;;;7591241;23;20068;-74
2023/09/03 02:56:26;;;;;;;5.75;2.58;;;24.50;56.30;;;;;;7591493;23;20006;-74
2023/09/03 02:59:28;;;;;;;6.18;2.50;;;24.50;56.60;;;;;;7591270;23;20089;-74
2023/09/03 03:02:29;;;;;;;7.00;2.67;;;24.40;56.80;;;;;;7565483;23;20014;-74
2023/09/03 03:05:30;;;;;;;3.42;2.47;;;24.30;56.80;;;;;;7591195;23;20062;-74
2023/09/03 03:08:31;;;;;;;4.95;2.50;;;24.30;57.00;;;;;;7591661;23;20057;-74
2023/09/03 03:11:32;;;;;;;6.57;2.65;;;24.30;57.00;;;;;;7591429;23;20053;-74
2023/09/03 03:14:35;;;;;;;13.40;2.60;;;24.20;57.20;;;;;;7565538;23;20470;-74
2023/09/03 03:17:36;;;;;;;7.43;2.63;;;24.20;57.50;;;;;;7565216;23;20009;-75
2023/09/03 03:20:37;;;;;;;6.80;2.55;;;24.20;57.50;;;;;;7564659;23;20014;-74
2023/09/03 03:23:39;;;;;;;5.65;2.65;;;24.20;57.60;;;;;;7564376;23;20100;-74
2023/09/03 03:26:40;;;;;;;6.43;2.30;;;24.10;57.70;;;;;;7540928;23;20095;-74
2023/09/03 03:29:51;;;;;;;5.25;2.78;;;24.00;58.00;;;;;;7564213;23;20010;-74
2023/09/03 03:32:52;;;;;;;5.20;2.78;;;24.00;58.10;;;;;;7591011;23;20069;-74
2023/09/03 03:35:55;;;;;;;6.93;2.72;;;24.00;58.30;;;;;;7565103;23;20028;-74
2023/09/03 03:38:56;;;;;;;4.95;2.38;;;23.90;58.40;;;;;;7564972;23;20014;-74
2023/09/03 03:41:57;;;;;;;3.70;2.20;;;23.90;58.40;;;;;;7564789;23;20407;-75
2023/09/03 03:44:58;;;;;;;5.82;2.40;;;23.90;58.50;;;;;;7565113;23;20288;-74
2023/09/03 03:47:59;;;;;;;6.75;3.03;;;23.90;58.50;;;;;;7565251;23;20050;-74
2023/09/03 03:51:00;;;;;;;4.28;2.47;;;23.90;58.40;;;;;;7591450;23;20010;-74
2023/09/03 03:54:04;;;;;;;7.22;2.33;;;23.90;58.40;;;;;;7564665;23;20025;-74
2023/09/03 03:57:05;;;;;;;3.60;2.33;;;23.90;58.40;;;;;;7564999;23;20459;-75
2023/09/03 04:00:07;;;;;;;4.38;2.53;;;23.80;58.40;;;;;;7590817;23;20123;-74
2023/09/03 04:03:13;;;;;;;3.70;2.40;;;23.80;58.40;;;;;;7590691;23;20443;-75
2023/09/03 04:06:14;;;;;;;7.45;2.78;;;23.70;58.60;;;;;;7564326;23;20061;-74
2023/09/03 04:09:15;;;;;;;5.13;2.58;;;23.70;59.00;;;;;;7564509;23;20022;-74
2023/09/03 04:12:15;;;;;;;4.72;2.40;;;23.70;59.30;;;;;;7564384;23;20312;-74
2023/09/03 04:15:16;;;;;;;3.58;2.47;;;23.60;59.40;;;;;;7564476;23;20028;-74
2023/09/03 04:18:17;;;;;;;8.10;2.45;;;23.60;59.50;;;;;;7590940;23;20485;-74
2023/09/03 04:21:18;;;;;;;4.00;2.30;;;23.60;59.50;;;;;;7540260;23;20415;-74
2023/09/03 04:24:19;;;;;;;3.38;2.38;;;23.60;59.60;;;;;;7564585;23;20108;-75
2023/09/03 04:27:20;;;;;;;4.57;2.50;;;23.60;59.60;;;;;;7564570;23;20113;-75
2023/09/03 04:30:21;;;;;;;4.95;2.63;;;23.60;59.60;;;;;;7540308;23;20105;-75
2023/09/03 04:33:22;;;;;;;6.22;2.47;;;23.60;59.50;;;;;;7564796;23;20447;-74
2023/09/03 04:36:23;;;;;;;5.85;2.20;;;23.60;59.40;;;;;;7540437;23;20014;-73
2023/09/03 04:39:24;;;;;;;5.05;2.70;;;23.60;59.30;;;;;;7564476;23;20247;-74
2023/09/03 04:42:24;;;;;;;5.38;2.63;;;23.50;59.20;;;;;;7590835;23;20316;-74
2023/09/03 04:45:25;;;;;;;5.45;2.35;;;23.50;59.20;;;;;;7591187;23;20010;-73
2023/09/03 04:48:27;;;;;;;9.02;2.53;;;23.50;59.30;;;;;;7564956;23;20043;-75
2023/09/03 04:51:27;;;;;;;5.60;2.50;;;23.50;59.40;;;;;;7564425;23;20025;-75
2023/09/03 04:54:31;;;;;;;5.95;2.63;;;23.40;59.60;;;;;;7564415;23;20018;-73
2023/09/03 04:57:32;;;;;;;6.05;3.00;;;23.40;59.70;;;;;;7564859;23;20010;-73
2023/09/03 05:00:33;;;;;;;8.90;2.72;;;23.40;59.80;;;;;;7590566;23;20006;-74
2023/09/03 05:03:36;;;;;;;4.13;2.67;;;23.30;59.90;;;;;;7541253;23;20017;-75
2023/09/03 05:06:37;;;;;;;4.70;2.60;;;23.30;59.90;;;;;;7564416;23;20278;-75
2023/09/03 05:09:38;;;;;;;7.38;2.90;;;23.30;59.90;;;;;;7564754;23;20576;-74
2023/09/03 05:12:42;;;;;;;8.95;2.60;;;23.20;59.90;;;;;;7564659;23;20021;-74
2023/09/03 05:15:43;;;;;;;4.90;2.72;;;23.30;60.10;;;;;;7566703;23;20046;-73
2023/09/03 05:18:44;;;;;;;4.47;2.35;;;23.20;60.10;;;;;;7567128;23;20428;-73
2023/09/03 05:21:45;;;;;;;5.10;2.75;;;23.20;60.30;;;;;;7566850;23;20096;-74
2023/09/03 05:24:46;;;;;;;4.45;2.70;;;23.20;60.30;;;;;;7566718;23;20013;-74
2023/09/03 05:27:47;;;;;;;5.07;3.22;;;23.20;60.40;;;;;;7566953;23;20379;-74
2023/09/03 05:30:49;;;;;;;5.53;2.25;;;23.20;60.40;;;;;;7566596;23;20100;-74
2023/09/03 05:33:50;;;;;;;7.70;2.53;;;23.30;60.60;;;;;;7567069;23;20014;-74
2023/09/03 05:36:51;;;;;;;6.50;3.00;;;23.20;60.50;;;;;;7592988;23;20060;-74
2023/09/03 05:39:52;;;;;;;4.45;2.80;;;23.20;60.50;;;;;;7566757;23;20016;-74
2023/09/03 05:42:53;;;;;;;6.72;3.78;;;23.20;60.40;;;;;;7567200;23;20392;-74
2023/09/03 05:45:54;;;;;;;9.02;4.32;;;23.20;60.40;;;;;;7593281;23;20084;-73
2023/09/03 05:48:55;;;;;;;7.47;3.50;;;23.20;60.40;;;;;;7593078;23;20010;-75
2023/09/03 05:51:56;;;;;;;7.43;3.88;;;23.20;60.40;;;;;;7566373;23;20157;-73
2023/09/03 05:54:58;;;;;;;7.28;3.38;;;23.20;60.40;;;;;;7566250;23;20025;-73
2023/09/03 05:57:59;;;;;;;7.43;3.15;;;23.20;60.40;;;;;;7566539;23;20014;-74
2023/09/03 06:01:07;;;;;;;6.28;3.13;;;23.20;60.40;;;;;;7565923;23;20054;-74
2023/09/03 06:04:13;;;;;;;4.53;3.38;;;23.20;60.40;;;;;;7542493;23;20074;-75
2023/09/03 06:07:15;;;;;;;8.35;3.20;;;23.20;60.50;;;;;;7566150;23;20045;-73
2023/09/03 06:10:16;;;;;;;10.05;2.88;;;23.10;60.40;;;;;;7542132;23;20491;-75
2023/09/03 06:13:17;;;;;;;5.38;3.00;;;23.10;60.50;;;;;;7593058;23;20014;-75
2023/09/03 06:16:18;;;;;;;9.82;2.92;;;23.10;60.50;;;;;;7592159;23;20028;-74
2023/09/03 06:19:18;;;;;;;5.50;3.00;;;23.10;60.50;;;;;;7592547;23;20789;-75
2023/09/03 06:22:19;;;;;;;5.80;2.83;;;23.10;60.50;;;;;;7592605;23;20093;-74
2023/09/03 06:25:20;;;;;;;5.20;2.75;;;23.20;60.40;;;;;;7592461;23;20464;-74
2023/09/03 06:28:21;;;;;;;3.72;2.13;;;23.20;60.30;;;;;;7592095;23;20038;-74
2023/09/03 06:31:22;;;;;;;6.25;3.13;;;23.20;60.10;;;;;;7592158;23;20052;-73
2023/09/03 06:34:25;;;;;;;6.70;2.75;;;23.30;60.10;;;;;;7565771;23;20014;-74
2023/09/03 06:37:26;;;;;;;6.03;2.75;;;23.30;60.00;;;;;;7592248;23;20010;-74
2023/09/03 06:40:27;;;;;;;8.70;3.08;;;23.40;59.80;;;;;;7591999;23;20009;-75
2023/09/03 06:43:27;;;;;;;7.38;2.47;;;23.40;59.70;;;;;;7592330;23;20041;-74
2023/09/03 06:46:28;;;;;;;7.80;2.53;;;23.50;59.50;;;;;;7565601;23;20534;-74
2023/09/03 06:49:29;;;;;;;5.00;2.92;;;23.60;59.50;;;;;;7591908;23;20123;-74
2023/09/03 06:52:30;;;;;;;8.23;3.03;;;23.70;59.30;;;;;;7591729;23;20016;-73
2023/09/03 06:55:31;;;;;;;8.98;3.13;;;23.70;59.10;;;;;;7591699;23;20104;-73
2023/09/03 06:58:32;;;;;;;7.65;2.67;;;23.90;59.00;;;;;;7591631;23;20016;-75
2023/09/03 07:01:33;;;;;;;6.22;2.42;;;23.90;58.70;;;;;;7591142;23;20006;-73
2023/09/03 07:04:35;;;;;;;6.22;2.88;;;24.00;58.60;;;;;;7564553;23;20009;-74
2023/09/03 07:07:36;;;;;;;7.07;3.25;;;24.20;58.20;;;;;;7591473;23;20006;-74
2023/09/03 07:10:37;;;;;;;7.90;2.92;;;24.20;57.50;;;;;;7591464;23;20037;-73
2023/09/03 07:13:37;;;;;;;5.15;2.97;;;24.30;57.40;;;;;;7591576;23;20014;-74
2023/09/03 07:16:38;;;;;;;6.40;3.38;;;24.40;57.20;;;;;;7541373;23;20343;-74
2023/09/03 07:19:39;;;;;;;10.48;3.25;;;24.50;57.00;;;;;;7591975;23;20064;-75
2023/09/03 07:22:41;;;;;;;5.45;3.33;;;24.60;56.80;;;;;;7591971;23;20016;-73
2023/09/03 07:25:42;;;;;;;12.55;3.28;;;24.80;56.50;;;;;;7591393;23;20101;-74
2023/09/03 07:28:42;;;;;;;6.82;3.22;;;24.90;56.00;;;;;;7591685;23;20420;-74
2023/09/03 07:31:43;;;;;;;7.88;3.13;;;25.10;55.90;;;;;;7590969;23;20149;-74
2023/09/03 07:34:45;;;;;;;13.93;3.83;;;25.10;55.60;;;;;;7565139;23;20046;-73
2023/09/03 07:37:46;;;;;;;7.88;2.75;;;25.30;55.50;;;;;;7591669;23;20128;-73
2023/09/03 07:40:47;;;;;;;7.47;2.38;;;25.40;55.10;;;;;;7565282;23;20100;-74
2023/09/03 07:43:50;;;;;;;5.05;3.08;;;25.50;54.80;;;;;;7591232;23;20025;-73
2023/09/03 07:46:51;;;;;;;4.82;2.67;;;25.70;54.80;;;;;;7590761;23;20489;-75
2023/09/03 07:49:52;;;;;;;8.43;2.85;;;25.80;54.40;;;;;;7590831;23;20113;-76
2023/09/03 07:52:52;;;;;;;5.47;2.63;;;25.80;54.20;;;;;;7591230;23;20044;-73
2023/09/03 07:55:53;;;;;;;5.90;2.75;;;26.00;54.10;;;;;;7564428;23;20002;-73
2023/09/03 07:58:54;;;;;;;7.68;3.00;;;26.10;53.70;;;;;;7564775;23;20017;-74
2023/09/03 08:01:58;;;;;;;3.65;2.67;;;26.20;53.40;;;;;;7591225;23;20296;-74
2023/09/03 08:04:59;;;;;;;4.57;2.65;;;26.40;53.10;;;;;;7564195;23;20659;-74
2023/09/03 08:08:00;;;;;;;5.38;2.60;;;26.50;53.40;;;;;;7564223;23;20025;-73
2023/09/03 08:11:01;;;;;;;6.57;2.70;;;26.60;52.50;;;;;;7589796;23;20490;-73
2023/09/03 08:14:02;;;;;;;4.47;2.47;;;26.70;52.00;;;;;;7564132;23;20020;-73
2023/09/03 08:17:03;;;;;;;4.60;2.33;;;26.80;51.70;;;;;;7590683;23;20116;-74
2023/09/03 08:20:05;;;;;;;4.10;2.65;;;26.90;51.50;;;;;;7590515;23;20017;-74
2023/09/03 08:23:06;;;;;;;4.00;2.97;;;27.00;51.20;;;;;;7590739;23;20014;-74
2023/09/03 08:26:07;;;;;;;6.38;2.47;;;27.10;50.90;;;;;;7590055;23;20049;-74
2023/09/03 08:29:08;;;;;;;6.75;3.03;;;27.20;50.60;;;;;;7590163;23;20093;-75
2023/09/03 08:32:09;;;;;;;10.55;2.97;;;27.30;50.30;;;;;;7589969;23;20010;-75
2023/09/03 08:35:10;;;;;;;7.25;2.85;;;27.40;50.30;;;;;;7563627;23;20005;-73
2023/09/03 08:38:11;;;;;;;5.63;2.78;;;27.40;49.90;;;;;;7590192;23;20010;-73
2023/09/03 08:41:12;;;;;;;6.60;3.00;;;27.50;49.80;;;;;;7563488;23;20076;-74
2023/09/03 08:44:27;;;;;;;6.55;3.67;;;27.60;49.80;;;;;;7563395;23;20046;-73
2023/09/03 08:47:28;;;;;;;9.27;3.35;;;27.70;49.80;;;;;;7590213;23;20085;-75
2023/09/03 08:50:29;;;;;;;5.93;2.45;;;27.70;49.80;;;;;;7565241;23;20100;-74
2023/09/03 08:53:34;;;;;;;8.23;3.00;;;27.80;50.00;;;;;;7592350;23;20357;-73
2023/09/03 08:56:35;;;;;;;6.75;2.53;;;27.90;50.10;;;;;;7592287;23;20022;-72
2023/09/03 08:59:35;;;;;;;8.73;2.47;;;28.00;49.90;;;;;;7592062;23;20084;-73
2023/09/03 09:02:37;;;;;;;5.13;2.38;;;28.20;49.40;;;;;;7592518;23;20073;-73
2023/09/03 09:05:41;;;;;;;5.80;2.85;;;28.20;49.20;;;;;;7592177;23;20062;-73
2023/09/03 09:08:42;;;;;;;6.15;2.90;;;28.30;48.90;;;;;;7592419;23;20099;-74
2023/09/03 09:11:53;;;;;;;7.78;3.03;;;28.40;48.70;;;;;;7592831;23;20010;-74
2023/09/03 09:15:03;;;;;;;5.18;2.60;;;28.40;48.70;;;;;;7592642;23;20326;-73
2023/09/03 09:18:08;;;;;;;9.63;4.13;;;28.50;48.80;;;;;;7566964;23;20029;-73
2023/09/03 09:21:09;;;;;;;8.25;3.28;;;28.60;48.60;;;;;;7567425;23;20006;-74
2023/09/03 09:24:11;;;;;;;4.55;2.45;;;28.60;48.70;;;;;;7593630;23;20120;-74
2023/09/03 09:27:13;;;;;;;15.63;3.15;;;28.70;48.70;;;;;;7566770;23;20022;-73
2023/09/03 09:30:16;;;;;;;5.15;2.95;;;28.70;48.40;;;;;;7592679;23;20400;-74
2023/09/03 09:33:17;;;;;;;10.10;3.95;;;28.70;48.40;;;;;;7593313;23;20010;-74
2023/09/03 09:36:18;;;;;;;6.53;3.13;;;28.70;48.40;;;;;;7567171;23;20014;-74
2023/09/03 09:39:18;;;;;;;8.70;3.10;;;28.70;48.00;;;;;;7566781;23;20081;-74
2023/09/03 09:42:19;;;;;;;4.68;2.63;;;28.80;48.10;;;;;;7592974;23;20013;-74
2023/09/03 09:45:20;;;;;;;5.28;2.55;;;28.90;48.00;;;;;;7593154;23;20021;-76
2023/09/03 09:48:21;;;;;;;4.80;2.30;;;29.00;47.50;;;;;;7593281;23;20010;-75
2023/09/03 09:51:22;;;;;;;3.85;2.60;;;29.00;47.40;;;;;;7566042;23;20416;-73
2023/09/03 09:54:23;;;;;;;8.48;2.35;;;29.00;47.50;;;;;;7565821;23;20076;-73
2023/09/03 09:57:24;;;;;;;8.05;2.60;;;29.10;47.40;;;;;;7592305;23;20038;-75
2023/09/03 10:00:35;;;;;;;5.18;2.50;;;29.20;47.10;;;;;;7591345;23;20416;-73
2023/09/03 10:03:46;;;;;;;7.50;2.38;;;29.20;46.80;;;;;;7590099;23;20018;-74
2023/09/03 10:06:48;;;;;;;4.63;2.63;;;29.30;46.50;;;;;;7565162;23;20077;-72
2023/09/03 10:09:49;;;;;;;7.03;2.33;;;29.30;46.50;;;;;;7565193;23;20044;-74
2023/09/03 10:12:49;;;;;;;4.65;2.33;;;29.40;46.00;;;;;;7592102;23;20055;-74
2023/09/03 10:15:52;;;;;;;2.67;2.05;;;29.40;45.50;;;;;;7592522;23;20006;-74
2023/09/03 10:18:57;;;;;;;6.28;2.30;;;29.50;45.10;;;;;;7592513;23;20010;-74
2023/09/03 10:22:01;;;;;;;7.28;2.90;;;29.60;44.70;;;;;;7566152;23;20017;-74
2023/09/03 10:25:07;;;;;;;4.45;2.17;;;29.70;44.40;;;;;;7592865;23;20228;-74
2023/09/03 10:28:09;;;;;;;4.88;2.50;;;29.90;44.10;;;;;;7541811;23;20018;-74
2023/09/03 10:31:11;;;;;;;3.33;2.15;;;30.10;43.50;;;;;;7592550;23;20636;-74
2023/09/03 10:34:15;;;;;;;2.85;1.92;;;30.20;42.60;;;;;;7592178;23;20109;-74
2023/09/03 10:37:15;;;;;;;4.40;2.40;;;30.30;42.60;;;;;;7592403;23;20005;-74
2023/09/03 10:40:23;;;;;;;7.65;2.00;;;30.40;42.40;;;;;;7565692;23;20447;-74
2023/09/03 10:43:24;;;;;;;4.43;1.90;;;30.60;42.00;;;;;;7566357;23;20037;-74
2023/09/03 10:46:28;;;;;;;4.93;1.80;;;30.90;41.10;;;;;;7592326;23;20093;-75
2023/09/03 10:49:42;;;;;;;3.22;2.25;;;31.10;40.00;;;;;;7565748;23;20010;-74
2023/09/03 10:52:42;;;;;;;10.32;2.08;;;31.30;39.10;;;;;;7565710;23;20412;-77
2023/09/03 10:56:09;;;;;;;3.75;2.20;;;31.50;38.80;;;;;;7592252;23;20045;-75
2023/09/03 10:59:09;;;;;;;6.03;2.30;;;31.80;38.70;;;;;;7592365;23;20006;-74
2023/09/03 11:02:27;;;;;;;3.90;2.03;;;32.10;38.20;;;;;;7591645;23;20037;-76
2023/09/03 11:05:28;;;;;;;4.97;1.95;;;32.30;37.90;;;;;;7565410;23;20013;-75
2023/09/03 11:08:34;;;;;;;6.90;1.67;;;32.60;37.50;;;;;;7591690;23;20104;-75
2023/09/03 11:11:35;;;;;;;6.60;2.00;;;32.90;37.20;;;;;;7591720;23;20673;-75
2023/09/03 11:14:38;;;;;;;5.75;2.33;;;33.30;36.80;;;;;;7591633;23;20333;-75
2023/09/03 11:17:42;;;;;;;3.22;1.98;;;33.60;36.40;;;;;;7592802;23;20006;-75
2023/09/03 11:20:43;;;;;;;3.45;2.10;;;33.90;35.50;;;;;;7591740;23;20202;-75
2023/09/03 11:24:04;;;;;;;6.07;2.30;;;34.20;35.40;;;;;;7592270;23;20062;-74
2023/09/03 11:27:05;;;;;;;7.20;2.50;;;34.60;35.00;;;;;;7564901;23;20016;-75
2023/09/03 11:30:07;;;;;;;8.32;1.88;;;35.00;34.30;;;;;;7591275;23;20021;-75
2023/09/03 11:33:21;;;;;;;2.85;2.10;;;35.30;33.80;;;;;;7590952;23;20076;-75
2023/09/03 11:36:24;;;;;;;3.97;2.15;;;35.50;33.10;;;;;;7591614;23;20404;-75
2023/09/03 11:39:25;;;;;;;2.90;2.13;;;35.70;33.00;;;;;;7540802;23;20014;-75
2023/09/03 11:42:26;;;;;;;2.83;1.80;;;36.00;32.40;;;;;;7591263;23;20442;-75
2023/09/03 11:45:30;;;;;;;3.33;1.75;;;36.10;32.00;;;;;;7564887;23;20010;-75
2023/09/03 11:48:32;;;;;;;2.75;1.92;;;36.30;31.60;;;;;;7591232;23;20032;-74
2023/09/03 11:51:33;;;;;;;2.70;1.98;;;36.40;31.40;;;;;;7564509;23;20064;-74
2023/09/03 11:54:33;;;;;;;2.55;1.90;;;36.70;31.50;;;;;;7591393;23;20018;-74
2023/09/03 11:57:36;;;;;;;3.20;2.08;;;36.90;30.80;;;;;;7564841;23;20318;-74
2023/09/03 12:00:38;;;;;;;4.05;2.40;;;37.10;30.10;;;;;;7591184;23;20557;-75
2023/09/03 12:03:40;;;;;;;4.65;2.30;;;37.40;29.70;;;;;;7591692;23;20069;-75
2023/09/03 12:06:42;;;;;;;4.00;1.83;;;37.50;29.30;;;;;;7564940;23;20372;-75
2023/09/03 12:09:43;;;;;;;2.53;1.90;;;37.70;29.10;;;;;;7590935;23;20084;-74
2023/09/03 12:12:47;;;;;;;2.47;1.83;;;38.00;28.80;;;;;;7591301;23;20010;-75
2023/09/03 12:15:47;;;;;;;6.95;2.17;;;38.30;28.70;;;;;;7565254;23;20093;-75
2023/09/03 12:18:57;;;;;;;3.15;2.15;;;38.80;28.10;;;;;;7564818;23;20010;-75
2023/09/03 12:21:57;;;;;;;3.33;2.00;;;39.10;27.70;;;;;;7590599;23;20018;-74
2023/09/03 12:25:05;;;;;;;5.88;3.08;;;39.40;27.40;;;;;;7591758;23;20423;-75
2023/09/03 12:28:06;;;;;;;;;;;39.90;27.10;;;;;;7594386;23;20407;-75
2023/09/03 12:31:07;;;;;;;3.22;2.15;;;40.50;26.80;;;;;;7593249;23;19936;-75
2023/09/03 12:34:08;;;;;;;9.93;2.22;;;41.20;26.00;;;;;;7593756;23;20444;-75
2023/09/03 12:37:10;;;;;;;3.15;2.42;;;41.70;25.20;;;;;;7567827;23;20085;-75
2023/09/03 12:40:10;;;;;;;4.63;1.98;;;42.00;24.90;;;;;;7567835;23;20014;-75
2023/09/03 12:43:11;;;;;;;4.88;2.00;;;42.60;24.70;;;;;;7593737;23;20013;-74
2023/09/03 12:46:13;;;;;;;3.42;1.67;;;43.20;24.20;;;;;;7593797;23;20018;-75
2023/09/03 12:49:13;;;;;;;6.55;2.42;;;43.80;23.70;;;;;;7594208;23;20582;-76
2023/09/03 12:52:14;;;;;;;3.78;2.50;;;44.50;23.20;;;;;;7567960;23;20010;-74
2023/09/03 12:55:15;;;;;;;3.28;1.90;;;45.30;22.70;;;;;;7567526;23;20549;-75
2023/09/03 12:58:16;;;;;;;6.30;1.88;;;45.80;22.30;;;;;;7593762;23;20088;-74
2023/09/03 13:01:17;;;;;;;3.78;1.88;;;46.30;21.90;;;;;;7566774;23;20013;-75
2023/09/03 13:04:18;;;;;;;10.05;2.33;;;46.80;21.50;;;;;;7567408;23;20021;-75
2023/09/03 13:07:19;;;;;;;2.70;1.80;;;46.90;21.20;;;;;;7594112;23;20035;-75
2023/09/03 13:10:20;;;;;;;2.95;1.95;;;47.10;21.10;;;;;;7567396;23;20522;-75
2023/09/03 13:13:22;;;;;;;1.85;1.63;;;47.30;20.90;;;;;;7593544;23;20105;-75
2023/09/03 13:16:27;;;;;;;2.75;1.90;;;47.60;20.70;;;;;;7567029;23;20618;-73
2023/09/03 13:19:28;;;;;;;2.00;1.80;;;47.80;20.30;;;;;;7593348;23;20010;-74
2023/09/03 13:22:28;;;;;;;3.20;1.92;;;47.80;20.10;;;;;;7566886;23;20592;-76
2023/09/03 13:25:29;;;;;;;3.28;1.98;;;47.80;20.00;;;;;;7592837;23;20383;-74
2023/09/03 13:28:33;;;;;;;3.78;1.77;;;48.00;19.80;;;;;;7593026;23;20021;-74
2023/09/03 13:31:34;;;;;;;2.28;2.08;;;48.10;19.70;;;;;;7592801;23;20057;-76
2023/09/03 13:34:36;;;;;;;6.32;1.70;;;48.30;19.80;;;;;;7593225;23;20013;-75
2023/09/03 13:37:37;;;;;;;3.78;1.77;;;48.20;19.60;;;;;;7593152;23;20698;-75
2023/09/03 13:40:38;;;;;;;3.30;2.05;;;47.90;19.80;;;;;;7593397;23;20009;-75
2023/09/03 13:43:42;;;;;;;2.78;1.77;;;47.60;19.90;;;;;;7543697;23;20371;-76
2023/09/03 13:46:42;;;;;;;4.20;1.92;;;47.20;19.90;;;;;;7594084;23;20029;-75
2023/09/03 13:49:43;;;;;;;4.40;1.90;;;46.80;20.20;;;;;;7593495;23;20088;-77
2023/09/03 13:52:44;;;;;;;2.95;1.85;;;46.50;20.40;;;;;;7593886;23;20005;-77
2023/09/03 13:55:45;;;;;;;1.63;1.38;;;45.90;20.70;;;;;;7593219;23;20041;-74
2023/09/03 13:58:45;;;;;;;2.28;1.75;;;45.30;21.00;;;;;;7592885;23;20010;-74
2023/09/03 14:01:46;;;;;;;1.83;1.38;;;44.80;21.30;;;;;;7592057;23;20081;-74
2023/09/03 14:04:51;;;;;;;2.30;1.83;;;44.10;21.80;;;;;;7592376;23;20655;-76
2023/09/03 14:07:51;;;;;;;2.67;1.70;;;43.30;22.40;;;;;;7566238;23;20038;-76
2023/09/03 14:10:57;;;;;;;2.38;1.50;;;42.40;23.10;;;;;;7592378;23;20096;-74
2023/09/03 14:13:58;;;;;;;2.10;1.75;;;41.50;23.80;;;;;;7592512;23;20014;-74
2023/09/03 14:16:59;;;;;;;1.77;1.50;;;40.70;24.40;;;;;;7541494;23;20069;-75
2023/09/03 14:20:00;;;;;;;5.80;3.30;;;39.90;25.10;;;;;;7565721;23;20010;-75
2023/09/03 14:23:01;;;;;;;4.07;1.90;;;39.30;25.70;;;;;;7566008;23;20069;-75
2023/09/03 14:26:01;;;;;;;2.65;1.77;;;38.70;26.30;;;;;;7565333;23;20013;-75
2023/09/03 14:29:09;;;;;;;2.92;2.05;;;38.20;26.60;;;;;;7566803;23;20182;-75
2023/09/03 14:32:09;;;;;;;1.88;1.50;;;37.80;26.90;;;;;;7592298;23;20075;-75
2023/09/03 14:35:10;;;;;;;3.03;2.30;;;37.50;27.10;;;;;;7592344;23;20018;-75
2023/09/03 14:38:12;;;;;;;1.67;1.55;;;37.30;27.10;;;;;;7592262;23;20085;-75
2023/09/03 14:41:12;;;;;;;7.15;1.90;;;37.10;27.40;;;;;;7591961;23;20191;-74
2023/09/03 14:44:14;;;;;;;3.88;1.73;;;36.90;27.70;;;;;;7592147;23;20089;-74
2023/09/03 14:47:15;;;;;;;3.30;1.85;;;36.70;28.10;;;;;;7591291;23;20083;-74
2023/09/03 14:50:17;;;;;;;4.40;2.90;;;36.40;28.30;;;;;;7591487;23;20014;-74
2023/09/03 14:53:18;;;;;;;4.95;2.28;;;36.20;28.50;;;;;;7591572;23;20057;-74
2023/09/03 14:56:20;;;;;;;5.78;3.67;;;36.00;28.70;;;;;;7591102;23;20065;-74
2023/09/03 14:59:21;;;;;;;5.55;3.28;;;35.70;29.20;;;;;;7591151;23;20069;-74
2023/09/03 15:02:21;;;;;;;4.18;1.95;;;35.50;29.30;;;;;;7590877;23;20085;-75
2023/09/03 15:05:22;;;;;;;5.22;2.00;;;35.40;29.40;;;;;;7564218;23;20017;-75
2023/09/03 15:08:23;;;;;;;4.97;2.05;;;35.30;29.50;;;;;;7564645;23;20041;-74
2023/09/03 15:11:24;;;;;;;3.92;2.55;;;35.20;29.70;;;;;;7590927;23;20118;-74
2023/09/03 15:14:24;;;;;;;4.85;1.67;;;35.10;29.80;;;;;;7592153;23;20618;-75
2023/09/03 15:17:25;;;;;;;3.50;2.10;;;35.10;29.80;;;;;;7593279;23;20013;-74
2023/09/03 15:20:27;;;;;;;2.20;1.63;;;35.00;29.80;;;;;;7565560;23;20396;-74
2023/09/03 15:23:28;;;;;;;4.68;2.50;;;35.00;29.80;;;;;;7591682;23;20050;-74
2023/09/03 15:26:29;;;;;;;3.55;1.98;;;35.00;29.80;;;;;;7591694;23;20156;-74
2023/09/03 15:29:30;;;;;;;3.30;1.67;;;35.00;29.90;;;;;;7591240;23;20021;-74
2023/09/03 15:32:30;;;;;;;2.80;1.73;;;35.00;29.90;;;;;;7591344;23;20014;-75
2023/09/03 15:35:36;;;;;;;2.00;1.55;;;35.00;29.90;;;;;;7591446;23;20010;-75
2023/09/03 15:38:37;;;;;;;1.70;1.50;;;35.00;30.00;;;;;;7564964;23;20002;-74
2023/09/03 15:41:38;;;;;;;6.05;1.73;;;35.00;30.10;;;;;;7590847;23;20036;-75
2023/09/03 15:44:39;;;;;;;2.45;1.70;;;35.00;30.20;;;;;;7591498;23;20016;-73
2023/09/03 15:47:40;;;;;;;4.10;2.30;;;34.90;30.30;;;;;;7590912;23;20021;-75